sensor_id;sensor_type;location;lat;lon;timestamp;temperature;humidity
22923;DHT22;11627;51.322;22.816;2023-05-07T00:01:56;4.90;99.90
22923;DHT22;11627;51.322;22.816;2023-05-07T00:04:22;5.00;99.90
22923;DHT22;11627;51.322;22.816;2023-05-07T00:06:48;5.00;99.90
22923;DHT22;11627;51.322;22.816;2023-05-07T00:09:14;5.00;99.90
22923;DHT22;11627;51.322;22.816;2023-05-07T00:11:39;4.90;99.90
22923;DHT22;11627;51.322;22.816;2023-05-07T00:14:05;4.90;99.90
22923;DHT22;11627;51.322;22.816;2023-05-07T00:16:31;4.90;99.90
22923;DHT22;11627;51.322;22.816;2023-05-07T00:18:57;4.90;99.90
22923;DHT22;11627;51.322;22.816;2023-05-07T00:21:23;4.90;99.90
22923;DHT22;11627;51.322;22.816;2023-05-07T00:23:52;4.90;99.90
22923;DHT22;11627;51.322;22.816;2023-05-07T00:26:18;4.90;99.90
22923;DHT22;11627;51.322;22.816;2023-05-07T00:28:44;4.90;99.90
22923;DHT22;11627;51.322;22.816;2023-05-07T00:31:10;5.00;99.90
22923;DHT22;11627;51.322;22.816;2023-05-07T00:33:36;4.90;99.90
22923;DHT22;11627;51.322;22.816;2023-05-07T00:36:01;5.00;99.90
22923;DHT22;11627;51.322;22.816;2023-05-07T00:38:27;4.90;99.90
22923;DHT22;11627;51.322;22.816;2023-05-07T00:40:53;4.90;99.90
22923;DHT22;11627;51.322;22.816;2023-05-07T00:43:18;4.90;99.90
22923;DHT22;11627;51.322;22.816;2023-05-07T00:45:44;4.90;99.90
22923;DHT22;11627;51.322;22.816;2023-05-07T00:48:10;4.80;99.90
22923;DHT22;11627;51.322;22.816;2023-05-07T00:50:36;4.80;99.90
22923;DHT22;11627;51.322;22.816;2023-05-07T00:53:02;4.80;99.90
22923;DHT22;11627;51.322;22.816;2023-05-07T00:55:28;4.80;99.90
22923;DHT22;11627;51.322;22.816;2023-05-07T00:57:54;4.80;99.90
22923;DHT22;11627;51.322;22.816;2023-05-07T01:00:20;4.80;99.90
22923;DHT22;11627;51.322;22.816;2023-05-07T01:02:46;4.80;99.90
22923;DHT22;11627;51.322;22.816;2023-05-07T01:05:15;4.80;99.90
22923;DHT22;11627;51.322;22.816;2023-05-07T01:07:42;4.80;99.90
22923;DHT22;11627;51.322;22.816;2023-05-07T01:10:08;4.80;99.90
22923;DHT22;11627;51.322;22.816;2023-05-07T01:12:37;4.70;99.90
22923;DHT22;11627;51.322;22.816;2023-05-07T01:15:05;4.80;99.90
22923;DHT22;11627;51.322;22.816;2023-05-07T01:17:35;4.70;99.90
22923;DHT22;11627;51.322;22.816;2023-05-07T01:20:01;4.80;99.90
22923;DHT22;11627;51.322;22.816;2023-05-07T01:22:33;4.80;99.90
22923;DHT22;11627;51.322;22.816;2023-05-07T01:25:00;4.80;99.90
22923;DHT22;11627;51.322;22.816;2023-05-07T01:27:27;4.80;99.90
22923;DHT22;11627;51.322;22.816;2023-05-07T01:29:53;4.80;99.90
22923;DHT22;11627;51.322;22.816;2023-05-07T01:32:23;4.80;99.90
22923;DHT22;11627;51.322;22.816;2023-05-07T01:34:53;4.80;99.90
22923;DHT22;11627;51.322;22.816;2023-05-07T01:37:20;4.80;99.90
22923;DHT22;11627;51.322;22.816;2023-05-07T01:39:46;4.80;99.90
22923;DHT22;11627;51.322;22.816;2023-05-07T01:42:13;4.80;99.90
22923;DHT22;11627;51.322;22.816;2023-05-07T01:44:39;4.80;99.90
22923;DHT22;11627;51.322;22.816;2023-05-07T01:47:05;4.80;99.90
22923;DHT22;11627;51.322;22.816;2023-05-07T01:49:31;4.80;99.90
22923;DHT22;11627;51.322;22.816;2023-05-07T01:51:58;4.70;99.90
22923;DHT22;11627;51.322;22.816;2023-05-07T01:54:27;4.80;99.90
22923;DHT22;11627;51.322;22.816;2023-05-07T01:56:58;4.80;99.90
22923;DHT22;11627;51.322;22.816;2023-05-07T01:59:25;4.70;99.90
22923;DHT22;11627;51.322;22.816;2023-05-07T02:01:50;4.70;99.90
22923;DHT22;11627;51.322;22.816;2023-05-07T02:04:17;4.70;99.90
22923;DHT22;11627;51.322;22.816;2023-05-07T02:06:43;4.70;99.90
22923;DHT22;11627;51.322;22.816;2023-05-07T02:09:08;4.70;99.90
22923;DHT22;11627;51.322;22.816;2023-05-07T02:11:34;4.60;99.90
22923;DHT22;11627;51.322;22.816;2023-05-07T02:14:00;4.70;99.90
22923;DHT22;11627;51.322;22.816;2023-05-07T02:16:26;4.70;99.90
22923;DHT22;11627;51.322;22.816;2023-05-07T02:18:52;4.70;99.90
22923;DHT22;11627;51.322;22.816;2023-05-07T02:21:17;4.70;99.90
22923;DHT22;11627;51.322;22.816;2023-05-07T02:23:43;4.70;99.90
22923;DHT22;11627;51.322;22.816;2023-05-07T02:26:10;4.60;99.90
22923;DHT22;11627;51.322;22.816;2023-05-07T02:28:36;4.60;99.90
22923;DHT22;11627;51.322;22.816;2023-05-07T02:31:05;4.60;99.90
22923;DHT22;11627;51.322;22.816;2023-05-07T02:33:31;4.60;99.90
22923;DHT22;11627;51.322;22.816;2023-05-07T02:35:56;4.60;99.90
22923;DHT22;11627;51.322;22.816;2023-05-07T02:38:23;4.70;99.90
22923;DHT22;11627;51.322;22.816;2023-05-07T02:40:48;4.60;99.90
22923;DHT22;11627;51.322;22.816;2023-05-07T02:43:14;4.60;99.90
22923;DHT22;11627;51.322;22.816;2023-05-07T02:45:40;4.70;99.90
22923;DHT22;11627;51.322;22.816;2023-05-07T02:48:06;4.70;99.90
22923;DHT22;11627;51.322;22.816;2023-05-07T02:50:31;4.70;99.90
22923;DHT22;11627;51.322;22.816;2023-05-07T02:52:58;4.70;99.90
22923;DHT22;11627;51.322;22.816;2023-05-07T02:55:23;4.60;99.90
22923;DHT22;11627;51.322;22.816;2023-05-07T02:57:49;4.60;99.90
22923;DHT22;11627;51.322;22.816;2023-05-07T03:00:17;4.50;99.90
22923;DHT22;11627;51.322;22.816;2023-05-07T03:02:46;4.60;99.90
22923;DHT22;11627;51.322;22.816;2023-05-07T03:05:12;4.60;99.90
22923;DHT22;11627;51.322;22.816;2023-05-07T03:07:39;4.60;99.90
22923;DHT22;11627;51.322;22.816;2023-05-07T03:10:06;4.60;99.90
22923;DHT22;11627;51.322;22.816;2023-05-07T03:12:32;4.60;99.90
22923;DHT22;11627;51.322;22.816;2023-05-07T03:14:57;4.70;99.90
22923;DHT22;11627;51.322;22.816;2023-05-07T03:17:23;4.60;99.90
22923;DHT22;11627;51.322;22.816;2023-05-07T03:19:49;4.60;99.90
22923;DHT22;11627;51.322;22.816;2023-05-07T03:22:15;4.50;99.90
22923;DHT22;11627;51.322;22.816;2023-05-07T03:24:40;4.50;99.90
22923;DHT22;11627;51.322;22.816;2023-05-07T03:27:06;4.40;99.90
22923;DHT22;11627;51.322;22.816;2023-05-07T03:29:32;4.40;99.90
22923;DHT22;11627;51.322;22.816;2023-05-07T03:31:58;4.40;99.90
22923;DHT22;11627;51.322;22.816;2023-05-07T03:34:23;4.40;99.90
22923;DHT22;11627;51.322;22.816;2023-05-07T03:36:49;4.40;99.90
22923;DHT22;11627;51.322;22.816;2023-05-07T03:39:15;4.40;99.90
22923;DHT22;11627;51.322;22.816;2023-05-07T03:41:41;4.40;99.90
22923;DHT22;11627;51.322;22.816;2023-05-07T03:44:07;4.40;99.90
22923;DHT22;11627;51.322;22.816;2023-05-07T03:46:33;4.40;99.90
22923;DHT22;11627;51.322;22.816;2023-05-07T03:48:59;4.40;99.90
22923;DHT22;11627;51.322;22.816;2023-05-07T03:51:25;4.30;99.90
22923;DHT22;11627;51.322;22.816;2023-05-07T03:53:51;4.40;99.90
22923;DHT22;11627;51.322;22.816;2023-05-07T03:56:22;4.30;99.90
22923;DHT22;11627;51.322;22.816;2023-05-07T03:58:48;4.40;99.90
22923;DHT22;11627;51.322;22.816;2023-05-07T04:01:14;4.40;99.90
22923;DHT22;11627;51.322;22.816;2023-05-07T04:03:40;4.30;99.90
22923;DHT22;11627;51.322;22.816;2023-05-07T04:06:05;4.20;99.90
22923;DHT22;11627;51.322;22.816;2023-05-07T04:08:31;4.30;99.90
22923;DHT22;11627;51.322;22.816;2023-05-07T04:10:58;4.30;99.90
22923;DHT22;11627;51.322;22.816;2023-05-07T04:13:24;4.30;99.90
22923;DHT22;11627;51.322;22.816;2023-05-07T04:15:51;4.30;99.90
22923;DHT22;11627;51.322;22.816;2023-05-07T04:18:17;4.30;99.90
22923;DHT22;11627;51.322;22.816;2023-05-07T04:20:43;4.40;99.90
22923;DHT22;11627;51.322;22.816;2023-05-07T04:23:09;4.40;99.90
22923;DHT22;11627;51.322;22.816;2023-05-07T04:25:34;4.40;99.90
22923;DHT22;11627;51.322;22.816;2023-05-07T04:28:00;4.40;99.90
22923;DHT22;11627;51.322;22.816;2023-05-07T04:30:26;4.40;99.90
22923;DHT22;11627;51.322;22.816;2023-05-07T04:32:52;4.40;99.90
22923;DHT22;11627;51.322;22.816;2023-05-07T04:35:18;4.30;99.90
22923;DHT22;11627;51.322;22.816;2023-05-07T04:37:44;4.30;99.90
22923;DHT22;11627;51.322;22.816;2023-05-07T04:40:10;4.20;99.90
22923;DHT22;11627;51.322;22.816;2023-05-07T04:42:36;4.30;99.90
22923;DHT22;11627;51.322;22.816;2023-05-07T04:45:02;4.30;99.90
22923;DHT22;11627;51.322;22.816;2023-05-07T04:47:28;4.40;99.90
22923;DHT22;11627;51.322;22.816;2023-05-07T04:49:54;4.30;99.90
22923;DHT22;11627;51.322;22.816;2023-05-07T04:52:19;4.30;99.90
22923;DHT22;11627;51.322;22.816;2023-05-07T04:54:45;4.30;99.90
22923;DHT22;11627;51.322;22.816;2023-05-07T04:57:11;4.30;99.90
22923;DHT22;11627;51.322;22.816;2023-05-07T04:59:37;4.30;99.90
22923;DHT22;11627;51.322;22.816;2023-05-07T05:02:02;4.30;99.90
22923;DHT22;11627;51.322;22.816;2023-05-07T05:04:30;4.40;99.90
22923;DHT22;11627;51.322;22.816;2023-05-07T05:06:55;4.40;99.90
22923;DHT22;11627;51.322;22.816;2023-05-07T05:09:21;4.40;99.90
22923;DHT22;11627;51.322;22.816;2023-05-07T05:11:47;4.40;99.90
22923;DHT22;11627;51.322;22.816;2023-05-07T05:14:13;4.40;99.90
22923;DHT22;11627;51.322;22.816;2023-05-07T05:16:38;4.40;99.90
22923;DHT22;11627;51.322;22.816;2023-05-07T05:19:04;4.40;99.90
22923;DHT22;11627;51.322;22.816;2023-05-07T05:21:31;4.50;99.90
22923;DHT22;11627;51.322;22.816;2023-05-07T05:23:57;4.50;99.90
22923;DHT22;11627;51.322;22.816;2023-05-07T05:26:23;4.50;99.90
22923;DHT22;11627;51.322;22.816;2023-05-07T05:28:49;4.50;99.90
22923;DHT22;11627;51.322;22.816;2023-05-07T05:31:16;4.50;99.90
22923;DHT22;11627;51.322;22.816;2023-05-07T05:33:42;4.40;99.90
22923;DHT22;11627;51.322;22.816;2023-05-07T05:36:09;4.40;99.90
22923;DHT22;11627;51.322;22.816;2023-05-07T05:38:36;4.40;99.90
22923;DHT22;11627;51.322;22.816;2023-05-07T05:41:02;4.50;99.90
22923;DHT22;11627;51.322;22.816;2023-05-07T05:43:27;4.50;99.90
22923;DHT22;11627;51.322;22.816;2023-05-07T05:45:54;4.50;99.90
22923;DHT22;11627;51.322;22.816;2023-05-07T05:48:20;4.50;99.90
22923;DHT22;11627;51.322;22.816;2023-05-07T05:50:46;4.60;99.90
22923;DHT22;11627;51.322;22.816;2023-05-07T05:53:12;4.50;99.90
22923;DHT22;11627;51.322;22.816;2023-05-07T05:55:37;4.50;99.90
22923;DHT22;11627;51.322;22.816;2023-05-07T05:58:03;4.60;99.90
22923;DHT22;11627;51.322;22.816;2023-05-07T06:00:29;4.70;99.90
22923;DHT22;11627;51.322;22.816;2023-05-07T06:02:55;4.70;99.90
22923;DHT22;11627;51.322;22.816;2023-05-07T06:05:20;4.60;99.90
22923;DHT22;11627;51.322;22.816;2023-05-07T06:07:46;4.60;99.90
22923;DHT22;11627;51.322;22.816;2023-05-07T06:10:12;4.70;99.90
22923;DHT22;11627;51.322;22.816;2023-05-07T06:12:38;4.70;99.90
22923;DHT22;11627;51.322;22.816;2023-05-07T06:15:04;4.70;99.90
22923;DHT22;11627;51.322;22.816;2023-05-07T06:17:30;4.80;99.90
22923;DHT22;11627;51.322;22.816;2023-05-07T06:19:55;4.90;99.90
22923;DHT22;11627;51.322;22.816;2023-05-07T06:22:21;4.90;99.90
22923;DHT22;11627;51.322;22.816;2023-05-07T06:24:47;4.90;99.90
22923;DHT22;11627;51.322;22.816;2023-05-07T06:27:13;4.90;99.90
22923;DHT22;11627;51.322;22.816;2023-05-07T06:29:38;4.90;99.90
22923;DHT22;11627;51.322;22.816;2023-05-07T06:32:09;4.90;99.90
22923;DHT22;11627;51.322;22.816;2023-05-07T06:34:35;5.00;99.90
22923;DHT22;11627;51.322;22.816;2023-05-07T06:37:01;5.00;99.90
22923;DHT22;11627;51.322;22.816;2023-05-07T06:39:27;5.10;99.90
22923;DHT22;11627;51.322;22.816;2023-05-07T06:41:53;5.10;99.90
22923;DHT22;11627;51.322;22.816;2023-05-07T06:44:18;5.10;99.90
22923;DHT22;11627;51.322;22.816;2023-05-07T06:46:44;5.10;99.90
22923;DHT22;11627;51.322;22.816;2023-05-07T06:49:11;5.10;99.90
22923;DHT22;11627;51.322;22.816;2023-05-07T06:51:37;5.10;99.90
22923;DHT22;11627;51.322;22.816;2023-05-07T06:54:03;5.30;99.90
22923;DHT22;11627;51.322;22.816;2023-05-07T06:56:30;5.20;99.90
22923;DHT22;11627;51.322;22.816;2023-05-07T06:58:56;5.20;99.90
22923;DHT22;11627;51.322;22.816;2023-05-07T07:01:21;5.20;99.90
22923;DHT22;11627;51.322;22.816;2023-05-07T07:03:47;5.20;99.90
22923;DHT22;11627;51.322;22.816;2023-05-07T07:06:13;5.20;99.90
22923;DHT22;11627;51.322;22.816;2023-05-07T07:08:39;5.20;99.90
22923;DHT22;11627;51.322;22.816;2023-05-07T07:11:05;5.30;99.90
22923;DHT22;11627;51.322;22.816;2023-05-07T07:13:31;5.30;99.90
22923;DHT22;11627;51.322;22.816;2023-05-07T07:15:56;5.30;99.90
22923;DHT22;11627;51.322;22.816;2023-05-07T07:18:22;5.40;99.90
22923;DHT22;11627;51.322;22.816;2023-05-07T07:20:48;5.50;99.90
22923;DHT22;11627;51.322;22.816;2023-05-07T07:23:14;5.50;99.90
22923;DHT22;11627;51.322;22.816;2023-05-07T07:25:40;5.50;99.90
22923;DHT22;11627;51.322;22.816;2023-05-07T07:28:06;5.50;99.90
22923;DHT22;11627;51.322;22.816;2023-05-07T07:30:32;5.40;99.90
22923;DHT22;11627;51.322;22.816;2023-05-07T07:32:58;5.40;99.90
22923;DHT22;11627;51.322;22.816;2023-05-07T07:35:33;5.50;99.90
22923;DHT22;11627;51.322;22.816;2023-05-07T07:37:59;5.50;99.90
22923;DHT22;11627;51.322;22.816;2023-05-07T07:40:25;5.60;99.90
22923;DHT22;11627;51.322;22.816;2023-05-07T07:42:52;5.60;99.90
22923;DHT22;11627;51.322;22.816;2023-05-07T07:45:18;5.60;99.90
22923;DHT22;11627;51.322;22.816;2023-05-07T07:47:43;5.70;99.90
22923;DHT22;11627;51.322;22.816;2023-05-07T07:50:09;5.70;99.90
22923;DHT22;11627;51.322;22.816;2023-05-07T07:52:35;5.70;99.90
22923;DHT22;11627;51.322;22.816;2023-05-07T07:55:01;5.70;99.90
22923;DHT22;11627;51.322;22.816;2023-05-07T07:57:28;5.60;99.90
22923;DHT22;11627;51.322;22.816;2023-05-07T07:59:53;5.70;99.90
22923;DHT22;11627;51.322;22.816;2023-05-07T08:02:20;5.60;99.90
22923;DHT22;11627;51.322;22.816;2023-05-07T08:04:46;5.70;99.90
22923;DHT22;11627;51.322;22.816;2023-05-07T08:07:13;5.70;99.90
22923;DHT22;11627;51.322;22.816;2023-05-07T08:09:39;5.60;99.90
22923;DHT22;11627;51.322;22.816;2023-05-07T08:12:06;5.60;99.90
22923;DHT22;11627;51.322;22.816;2023-05-07T08:14:34;5.60;99.90
22923;DHT22;11627;51.322;22.816;2023-05-07T08:17:01;5.70;99.90
22923;DHT22;11627;51.322;22.816;2023-05-07T08:19:28;5.70;99.90
22923;DHT22;11627;51.322;22.816;2023-05-07T08:21:54;5.60;99.90
22923;DHT22;11627;51.322;22.816;2023-05-07T08:24:21;5.60;99.90
22923;DHT22;11627;51.322;22.816;2023-05-07T08:26:46;5.70;99.90
22923;DHT22;11627;51.322;22.816;2023-05-07T08:29:12;5.80;99.90
22923;DHT22;11627;51.322;22.816;2023-05-07T08:31:38;5.80;99.90
22923;DHT22;11627;51.322;22.816;2023-05-07T08:34:05;5.80;99.90
22923;DHT22;11627;51.322;22.816;2023-05-07T08:36:32;5.80;99.90
22923;DHT22;11627;51.322;22.816;2023-05-07T08:38:57;5.90;99.90
22923;DHT22;11627;51.322;22.816;2023-05-07T08:41:24;5.90;99.90
22923;DHT22;11627;51.322;22.816;2023-05-07T08:43:51;5.90;99.90
22923;DHT22;11627;51.322;22.816;2023-05-07T08:46:22;6.00;99.90
22923;DHT22;11627;51.322;22.816;2023-05-07T08:48:49;6.00;99.90
22923;DHT22;11627;51.322;22.816;2023-05-07T08:51:19;5.90;99.90
22923;DHT22;11627;51.322;22.816;2023-05-07T09:04:25;5.80;99.90
22923;DHT22;11627;51.322;22.816;2023-05-07T09:07:35;5.60;99.90
22923;DHT22;11627;51.322;22.816;2023-05-07T09:10:03;5.70;99.90
22923;DHT22;11627;51.322;22.816;2023-05-07T09:19:13;5.70;99.90
22923;DHT22;11627;51.322;22.816;2023-05-07T09:21:38;5.70;99.90
22923;DHT22;11627;51.322;22.816;2023-05-07T09:24:05;5.60;99.90
22923;DHT22;11627;51.322;22.816;2023-05-07T09:26:31;5.50;99.90
22923;DHT22;11627;51.322;22.816;2023-05-07T09:28:58;5.60;99.90
22923;DHT22;11627;51.322;22.816;2023-05-07T09:31:24;5.60;99.90
22923;DHT22;11627;51.322;22.816;2023-05-07T09:33:50;5.70;99.90
22923;DHT22;11627;51.322;22.816;2023-05-07T09:36:18;5.80;99.90
22923;DHT22;11627;51.322;22.816;2023-05-07T09:38:44;5.80;99.90
22923;DHT22;11627;51.322;22.816;2023-05-07T09:41:12;5.80;99.90
22923;DHT22;11627;51.322;22.816;2023-05-07T09:43:39;5.80;99.90
22923;DHT22;11627;51.322;22.816;2023-05-07T09:46:13;5.90;99.90
22923;DHT22;11627;51.322;22.816;2023-05-07T09:48:41;5.70;99.90
22923;DHT22;11627;51.322;22.816;2023-05-07T09:53:45;5.70;99.90
22923;DHT22;11627;51.322;22.816;2023-05-07T09:56:13;5.70;99.90
22923;DHT22;11627;51.322;22.816;2023-05-07T09:58:39;5.70;99.90
22923;DHT22;11627;51.322;22.816;2023-05-07T10:01:07;5.80;99.90
22923;DHT22;11627;51.322;22.816;2023-05-07T10:03:33;5.80;99.90
22923;DHT22;11627;51.322;22.816;2023-05-07T10:06:01;5.90;99.90
22923;DHT22;11627;51.322;22.816;2023-05-07T10:08:27;5.80;99.90
22923;DHT22;11627;51.322;22.816;2023-05-07T10:10:54;5.90;99.90
22923;DHT22;11627;51.322;22.816;2023-05-07T10:13:20;6.00;99.90
22923;DHT22;11627;51.322;22.816;2023-05-07T10:15:47;6.00;99.90
22923;DHT22;11627;51.322;22.816;2023-05-07T10:18:13;6.10;99.90
22923;DHT22;11627;51.322;22.816;2023-05-07T10:20:39;6.10;99.90
22923;DHT22;11627;51.322;22.816;2023-05-07T10:23:08;6.10;99.90
22923;DHT22;11627;51.322;22.816;2023-05-07T10:25:38;6.20;99.90
22923;DHT22;11627;51.322;22.816;2023-05-07T10:28:08;6.20;99.90
22923;DHT22;11627;51.322;22.816;2023-05-07T10:33:33;6.10;99.90
22923;DHT22;11627;51.322;22.816;2023-05-07T10:36:01;6.00;99.90
22923;DHT22;11627;51.322;22.816;2023-05-07T10:38:30;6.10;99.90
22923;DHT22;11627;51.322;22.816;2023-05-07T10:40:56;6.20;99.90
22923;DHT22;11627;51.322;22.816;2023-05-07T10:43:22;6.30;99.90
22923;DHT22;11627;51.322;22.816;2023-05-07T10:51:29;6.30;99.90
22923;DHT22;11627;51.322;22.816;2023-05-07T10:56:41;6.40;99.90
22923;DHT22;11627;51.322;22.816;2023-05-07T10:59:33;6.30;99.90
22923;DHT22;11627;51.322;22.816;2023-05-07T11:02:00;6.50;99.90
22923;DHT22;11627;51.322;22.816;2023-05-07T11:04:32;6.50;99.90
22923;DHT22;11627;51.322;22.816;2023-05-07T11:07:27;6.50;99.90
22923;DHT22;11627;51.322;22.816;2023-05-07T11:10:12;6.40;99.90
22923;DHT22;11627;51.322;22.816;2023-05-07T11:15:13;6.30;99.90
22923;DHT22;11627;51.322;22.816;2023-05-07T11:17:59;6.20;99.90
22923;DHT22;11627;51.322;22.816;2023-05-07T11:20:56;6.20;99.90
22923;DHT22;11627;51.322;22.816;2023-05-07T11:28:41;6.20;99.90
22923;DHT22;11627;51.322;22.816;2023-05-07T11:31:08;6.30;99.90
22923;DHT22;11627;51.322;22.816;2023-05-07T11:33:35;6.20;99.90
22923;DHT22;11627;51.322;22.816;2023-05-07T11:36:07;6.10;99.90
22923;DHT22;11627;51.322;22.816;2023-05-07T11:38:37;6.30;99.90
22923;DHT22;11627;51.322;22.816;2023-05-07T11:41:04;6.20;99.90
22923;DHT22;11627;51.322;22.816;2023-05-07T11:43:34;6.30;99.90
22923;DHT22;11627;51.322;22.816;2023-05-07T11:46:09;6.30;99.90
22923;DHT22;11627;51.322;22.816;2023-05-07T11:48:36;6.40;99.90
22923;DHT22;11627;51.322;22.816;2023-05-07T11:51:04;6.30;99.90
22923;DHT22;11627;51.322;22.816;2023-05-07T11:53:41;6.30;99.90
22923;DHT22;11627;51.322;22.816;2023-05-07T11:56:14;6.20;99.90
22923;DHT22;11627;51.322;22.816;2023-05-07T11:58:41;6.30;99.90
22923;DHT22;11627;51.322;22.816;2023-05-07T12:01:10;6.30;99.90
22923;DHT22;11627;51.322;22.816;2023-05-07T12:03:43;6.30;99.90
22923;DHT22;11627;51.322;22.816;2023-05-07T12:06:12;6.30;99.90
22923;DHT22;11627;51.322;22.816;2023-05-07T12:08:39;6.40;99.90
22923;DHT22;11627;51.322;22.816;2023-05-07T12:11:13;6.30;99.90
22923;DHT22;11627;51.322;22.816;2023-05-07T12:13:39;6.40;99.90
22923;DHT22;11627;51.322;22.816;2023-05-07T12:16:06;6.40;99.90
22923;DHT22;11627;51.322;22.816;2023-05-07T12:18:33;6.50;99.90
22923;DHT22;11627;51.322;22.816;2023-05-07T12:21:00;6.60;99.90
22923;DHT22;11627;51.322;22.816;2023-05-07T12:23:25;6.70;99.90
22923;DHT22;11627;51.322;22.816;2023-05-07T12:25:51;6.70;99.90
22923;DHT22;11627;51.322;22.816;2023-05-07T12:28:18;6.90;99.90
22923;DHT22;11627;51.322;22.816;2023-05-07T12:30:46;6.80;99.90
22923;DHT22;11627;51.322;22.816;2023-05-07T12:33:16;6.80;99.90
22923;DHT22;11627;51.322;22.816;2023-05-07T12:35:43;6.70;99.90
22923;DHT22;11627;51.322;22.816;2023-05-07T12:38:13;6.80;99.90
22923;DHT22;11627;51.322;22.816;2023-05-07T12:43:05;6.80;99.90
22923;DHT22;11627;51.322;22.816;2023-05-07T12:45:31;6.70;99.90
22923;DHT22;11627;51.322;22.816;2023-05-07T12:48:01;6.70;99.90
22923;DHT22;11627;51.322;22.816;2023-05-07T12:50:31;6.70;99.90
22923;DHT22;11627;51.322;22.816;2023-05-07T12:52:56;6.60;99.90
22923;DHT22;11627;51.322;22.816;2023-05-07T12:55:22;6.60;99.90
22923;DHT22;11627;51.322;22.816;2023-05-07T12:57:48;6.60;99.90
22923;DHT22;11627;51.322;22.816;2023-05-07T13:00:16;6.60;99.90
22923;DHT22;11627;51.322;22.816;2023-05-07T13:02:42;6.60;99.90
22923;DHT22;11627;51.322;22.816;2023-05-07T13:05:12;6.70;99.90
22923;DHT22;11627;51.322;22.816;2023-05-07T13:07:37;6.70;99.90
22923;DHT22;11627;51.322;22.816;2023-05-07T13:10:04;6.70;99.90
22923;DHT22;11627;51.322;22.816;2023-05-07T13:12:30;6.80;99.90
22923;DHT22;11627;51.322;22.816;2023-05-07T13:14:55;6.90;99.90
22923;DHT22;11627;51.322;22.816;2023-05-07T13:17:21;6.90;99.90
22923;DHT22;11627;51.322;22.816;2023-05-07T13:19:47;6.90;99.90
22923;DHT22;11627;51.322;22.816;2023-05-07T13:22:13;6.70;99.90
22923;DHT22;11627;51.322;22.816;2023-05-07T13:24:38;6.70;99.90
22923;DHT22;11627;51.322;22.816;2023-05-07T13:27:07;6.80;99.90
22923;DHT22;11627;51.322;22.816;2023-05-07T13:29:32;6.70;99.90
22923;DHT22;11627;51.322;22.816;2023-05-07T13:31:58;6.60;99.90
22923;DHT22;11627;51.322;22.816;2023-05-07T13:34:24;6.60;99.90
22923;DHT22;11627;51.322;22.816;2023-05-07T13:36:50;6.70;99.90
22923;DHT22;11627;51.322;22.816;2023-05-07T13:39:17;6.80;99.90
22923;DHT22;11627;51.322;22.816;2023-05-07T13:41:43;6.80;99.90
22923;DHT22;11627;51.322;22.816;2023-05-07T13:44:10;6.80;99.90
22923;DHT22;11627;51.322;22.816;2023-05-07T13:46:36;6.60;99.90
22923;DHT22;11627;51.322;22.816;2023-05-07T13:49:02;6.60;99.90
22923;DHT22;11627;51.322;22.816;2023-05-07T13:51:27;6.70;99.90
22923;DHT22;11627;51.322;22.816;2023-05-07T13:53:53;6.60;99.90
22923;DHT22;11627;51.322;22.816;2023-05-07T13:56:19;6.70;99.90
22923;DHT22;11627;51.322;22.816;2023-05-07T13:58:46;6.80;99.90
22923;DHT22;11627;51.322;22.816;2023-05-07T14:01:12;6.90;99.90
22923;DHT22;11627;51.322;22.816;2023-05-07T14:03:38;7.00;99.90
22923;DHT22;11627;51.322;22.816;2023-05-07T14:06:05;6.90;99.90
22923;DHT22;11627;51.322;22.816;2023-05-07T14:08:30;6.90;99.90
22923;DHT22;11627;51.322;22.816;2023-05-07T14:10:56;6.90;99.90
22923;DHT22;11627;51.322;22.816;2023-05-07T14:13:22;6.90;99.90
22923;DHT22;11627;51.322;22.816;2023-05-07T14:15:48;6.90;99.90
22923;DHT22;11627;51.322;22.816;2023-05-07T14:18:15;6.90;99.90
22923;DHT22;11627;51.322;22.816;2023-05-07T14:20:41;7.00;99.90
22923;DHT22;11627;51.322;22.816;2023-05-07T14:23:08;6.90;99.90
22923;DHT22;11627;51.322;22.816;2023-05-07T14:25:35;7.00;99.90
22923;DHT22;11627;51.322;22.816;2023-05-07T14:28:00;7.00;99.90
22923;DHT22;11627;51.322;22.816;2023-05-07T14:30:26;6.90;99.90
22923;DHT22;11627;51.322;22.816;2023-05-07T14:32:52;6.80;99.90
22923;DHT22;11627;51.322;22.816;2023-05-07T14:35:18;6.90;99.90
22923;DHT22;11627;51.322;22.816;2023-05-07T14:37:43;7.00;99.90
22923;DHT22;11627;51.322;22.816;2023-05-07T14:40:09;7.00;99.90
22923;DHT22;11627;51.322;22.816;2023-05-07T14:42:35;7.00;99.90
22923;DHT22;11627;51.322;22.816;2023-05-07T14:45:01;7.00;99.90
22923;DHT22;11627;51.322;22.816;2023-05-07T14:47:27;6.90;99.90
22923;DHT22;11627;51.322;22.816;2023-05-07T14:49:54;6.90;99.90
22923;DHT22;11627;51.322;22.816;2023-05-07T14:52:20;6.90;99.90
22923;DHT22;11627;51.322;22.816;2023-05-07T14:54:46;7.00;99.90
22923;DHT22;11627;51.322;22.816;2023-05-07T14:57:13;7.00;99.90
22923;DHT22;11627;51.322;22.816;2023-05-07T14:59:41;6.90;99.90
22923;DHT22;11627;51.322;22.816;2023-05-07T15:02:08;6.80;99.90
22923;DHT22;11627;51.322;22.816;2023-05-07T15:04:34;6.80;99.90
22923;DHT22;11627;51.322;22.816;2023-05-07T15:07:00;6.80;99.90
22923;DHT22;11627;51.322;22.816;2023-05-07T15:09:26;6.70;99.90
22923;DHT22;11627;51.322;22.816;2023-05-07T15:11:52;6.80;99.90
22923;DHT22;11627;51.322;22.816;2023-05-07T15:14:18;6.70;99.90
22923;DHT22;11627;51.322;22.816;2023-05-07T15:16:43;6.70;99.90
22923;DHT22;11627;51.322;22.816;2023-05-07T15:19:10;6.80;99.90
22923;DHT22;11627;51.322;22.816;2023-05-07T15:21:36;6.70;99.90
22923;DHT22;11627;51.322;22.816;2023-05-07T15:24:02;6.80;99.90
22923;DHT22;11627;51.322;22.816;2023-05-07T15:26:28;6.80;99.90
22923;DHT22;11627;51.322;22.816;2023-05-07T15:28:54;6.80;99.90
22923;DHT22;11627;51.322;22.816;2023-05-07T15:31:27;6.70;99.90
22923;DHT22;11627;51.322;22.816;2023-05-07T15:33:52;6.80;99.90
22923;DHT22;11627;51.322;22.816;2023-05-07T15:36:20;6.80;99.90
22923;DHT22;11627;51.322;22.816;2023-05-07T15:38:46;6.90;99.90
22923;DHT22;11627;51.322;22.816;2023-05-07T15:41:12;6.80;99.90
22923;DHT22;11627;51.322;22.816;2023-05-07T15:43:45;6.70;99.90
22923;DHT22;11627;51.322;22.816;2023-05-07T15:46:11;6.70;99.90
22923;DHT22;11627;51.322;22.816;2023-05-07T15:48:37;6.70;99.90
22923;DHT22;11627;51.322;22.816;2023-05-07T15:51:03;6.50;99.90
22923;DHT22;11627;51.322;22.816;2023-05-07T15:53:30;6.50;99.90
22923;DHT22;11627;51.322;22.816;2023-05-07T15:55:56;6.50;99.90
22923;DHT22;11627;51.322;22.816;2023-05-07T15:58:22;6.50;99.90
22923;DHT22;11627;51.322;22.816;2023-05-07T16:00:48;6.60;99.90
22923;DHT22;11627;51.322;22.816;2023-05-07T16:03:14;6.60;99.90
22923;DHT22;11627;51.322;22.816;2023-05-07T16:05:40;6.70;99.90
22923;DHT22;11627;51.322;22.816;2023-05-07T16:08:06;6.70;99.90
22923;DHT22;11627;51.322;22.816;2023-05-07T16:10:32;6.70;99.90